Meteo Giornale » Osservazioni meteo Italia » Aosta

ore: 19:20 - Osservazioni Meteo Aosta
Lat. 45° 44' N Lon. 7° 22' E Alt. 546 metri s.l.m.

sereno Europe/Rome

24 °C

Sereno

Temp. 24 Ore

14 °C

27 °C

Nord

0 Km/h

Dew point 14 °C

Umidità 53 %

Visibilità  10 Km

Il sole sorge alle ore 06:31

Il sole tramonta alle ore 20:37

Data e Ora Cielo e Fenomeni T °C DP °C Um. % Pres. hPa Vis. km Vento km/h
Oggi h: 19:20 sereno Sereno 24 14 53 1016 10 N 0
Oggi h: 18:50 sereno Sereno 25 14 50 1016 10 E 29.6
Oggi h: 18:20 sereno Sereno 26 14 47 1016 10 E 29.6
Oggi h: 17:50 sereno Sereno 26 15 50 1016 10 E 29.6
Oggi h: 17:20 sereno Sereno 26 15 50 1016 10 E 27.8
Oggi h: 16:50 sereno Sereno 26 14 47 1016 10 E 22.2
Oggi h: 16:20 sereno Sereno 27 14 44 1016 10 E 25.9
Oggi h: 15:20 sereno Sereno 27 14 44 1017 10 E 22.2
Oggi h: 14:50 sereno Sereno 27 15 47 1017 10 E 20.3
Oggi h: 14:20 poco_nuvoloso Poco Nuvoloso 27 14 44 1017 10 E 20.3
Oggi h: 13:50 poco_nuvoloso Poco Nuvoloso 24 14 53 1018 10 E 18.5
Oggi h: 13:20 sereno Sereno 25 13 47 1018 10 E/SE 20.3
Oggi h: 12:50 sereno Sereno 25 13 47 1018 10 E/SE 16.7
Oggi h: 12:20 sereno Sereno 24 12 47 1019 10 E/NE 7.4
Oggi h: 11:50 sereno Sereno 23 11 46 1019 10 N 3.7
Oggi h: 11:20 sereno Sereno 22 11 49 1019 10 N 5.5
Oggi h: 10:50 sereno Sereno 20 10 52 1020 10 N 3.7
Oggi h: 10:20 sereno Sereno 20 11 56 1019 10 N 3.7
Oggi h: 08:50 nuvoloso Nuvoloso 16 11 72 1020 10 N 1.8
Oggi h: 08:20 sereno Sereno 16 11 72 1020 10 N 3.7
Oggi h: 07:50 sereno Sereno 15 12 82 1020 10 N 1.8
Oggi h: 07:20 poco_nuvoloso Poco Nuvoloso 14 12 87 1020 10 N 3.7
Oggi h: 06:50 poco_nuvoloso Poco Nuvoloso 14 12 87 1020 10 N 3.7
Oggi h: 06:20 molto_nuvoloso Molto Nuvoloso 14 12 87 1020 10 N 1.8
Ieri h: 20:50 sereno Sereno 22 12 53 1017 10 E 13
Ieri h: 20:20 sereno Sereno 23 12 49 1017 10 E 18.5
Ieri h: 19:50 sereno Sereno 23 12 49 1016 10 E 25.9